createdAt,value
2022-11-20T00:04:25.552Z,10.02
2022-11-20T00:09:28.062Z,10.06
2022-11-20T00:14:30.528Z,10.13
2022-11-20T00:19:33.060Z,10.16
2022-11-20T00:24:38.949Z,10.21
2022-11-20T00:29:45.285Z,10.26
2022-11-20T00:34:47.877Z,10.37
2022-11-20T00:39:50.376Z,10.47
2022-11-20T00:44:52.938Z,10.54
2022-11-20T00:49:55.547Z,10.53
2022-11-20T00:54:58.080Z,10.56
2022-11-20T01:00:00.555Z,10.72
2022-11-20T01:05:03.528Z,10.74
2022-11-20T01:10:06.875Z,10.94
2022-11-20T01:15:09.926Z,10.95
2022-11-20T01:20:12.619Z,10.97
2022-11-20T01:25:15.216Z,10.96
2022-11-20T01:30:17.725Z,11.05
2022-11-20T01:35:20.221Z,11.18
2022-11-20T01:40:22.635Z,11.13
2022-11-20T01:46:12.829Z,11.13
2022-11-20T01:51:35.412Z,11.15
2022-11-20T01:56:42.982Z,10.95
2022-11-20T02:01:45.941Z,11.06
2022-11-20T02:07:00.336Z,11.03
2022-11-20T02:12:04.471Z,11.06
2022-11-20T02:17:06.961Z,11.00
2022-11-20T02:22:37.186Z,11.00
2022-11-20T02:27:39.830Z,10.98
2022-11-20T02:32:42.347Z,10.97
2022-11-20T02:37:46.136Z,10.81
2022-11-20T02:42:48.777Z,10.76
2022-11-20T02:47:51.894Z,10.64
2022-11-20T02:52:54.370Z,10.53
2022-11-20T02:57:57.179Z,10.36
2022-11-20T03:02:59.637Z,10.32
2022-11-20T03:08:02.050Z,10.19
2022-11-20T03:13:04.590Z,10.22
2022-11-20T03:18:07.225Z,10.04
2022-11-20T03:23:09.828Z,9.75
2022-11-20T03:28:12.393Z,9.66
2022-11-20T03:33:14.885Z,9.40
2022-11-20T03:38:17.317Z,9.05
2022-11-20T03:43:19.776Z,8.89
2022-11-20T03:48:23.263Z,8.62
2022-11-20T03:53:27.108Z,8.62
2022-11-20T03:58:29.543Z,8.38
2022-11-20T04:03:32.040Z,8.35
2022-11-20T04:08:34.678Z,8.05
2022-11-20T04:13:38.403Z,8.07
2022-11-20T04:18:41.011Z,7.85
2022-11-20T04:23:43.576Z,7.69
2022-11-20T04:28:46.312Z,7.64
2022-11-20T04:33:48.852Z,7.56
2022-11-20T04:38:57.275Z,7.59
2022-11-20T04:44:04.470Z,7.67
2022-11-20T04:49:08.110Z,7.43
2022-11-20T04:54:12.848Z,7.26
2022-11-20T04:59:15.564Z,7.17
2022-11-20T05:04:18.117Z,7.22
2022-11-20T05:09:20.850Z,7.02
2022-11-20T05:14:23.682Z,7.04
2022-11-20T05:19:26.335Z,6.90
2022-11-20T05:24:28.864Z,6.80
2022-11-20T05:29:31.347Z,6.41
2022-11-20T05:34:34.055Z,6.53
2022-11-20T05:39:36.665Z,6.45
2022-11-20T05:44:39.128Z,6.47
2022-11-20T05:49:41.551Z,6.43
2022-11-20T05:54:43.974Z,6.54
2022-11-20T05:59:46.487Z,6.47
2022-11-20T06:04:49.022Z,6.46
2022-11-20T06:09:51.524Z,6.61
2022-11-20T06:14:54.068Z,6.81
2022-11-20T06:19:56.528Z,6.74
2022-11-20T06:24:58.993Z,6.84
2022-11-20T06:30:01.459Z,6.72
2022-11-20T06:35:06.306Z,6.78
2022-11-20T06:40:09.903Z,6.72
2022-11-20T06:45:12.550Z,6.80
2022-11-20T06:50:15.107Z,6.64
2022-11-20T06:55:17.689Z,6.87
2022-11-20T07:00:20.217Z,6.99
2022-11-20T07:05:22.676Z,7.03
2022-11-20T07:10:26.070Z,6.70
2022-11-20T07:15:28.657Z,6.67
2022-11-20T07:20:31.158Z,6.50
2022-11-20T07:25:34.268Z,6.34
2022-11-20T07:30:36.749Z,6.39
2022-11-20T07:35:39.767Z,6.42
2022-11-20T07:40:42.325Z,6.51
2022-11-20T07:45:44.812Z,6.40
2022-11-20T07:50:47.412Z,6.49
2022-11-20T07:55:50.270Z,6.89
2022-11-20T08:00:52.784Z,6.49
2022-11-20T08:05:55.263Z,6.31
2022-11-20T08:11:19.391Z,6.40
2022-11-20T08:16:23.017Z,6.21
2022-11-20T08:21:25.528Z,6.23
2022-11-20T08:26:28.760Z,6.06
2022-11-20T08:31:32.061Z,5.94
2022-11-20T08:36:36.276Z,6.07
2022-11-20T08:41:38.739Z,6.22
2022-11-20T08:46:42.949Z,5.97
2022-11-20T08:51:46.329Z,5.69
2022-11-20T08:56:49.283Z,5.80
2022-11-20T09:01:51.802Z,5.93
2022-11-20T09:06:54.428Z,5.79
2022-11-20T09:11:56.880Z,5.72
2022-11-20T09:16:59.495Z,5.84
2022-11-20T09:22:02.271Z,5.74
2022-11-20T09:27:13.138Z,5.62
2022-11-20T09:32:15.584Z,5.36
2022-11-20T09:37:18.124Z,5.34
2022-11-20T09:42:29.386Z,5.32
2022-11-20T09:47:56.136Z,5.20
2022-11-20T09:53:12.593Z,4.94
2022-11-20T09:58:40.884Z,5.03
2022-11-20T10:04:06.015Z,5.15
2022-11-20T10:09:14.216Z,5.00
2022-11-20T10:14:31.561Z,5.02
2022-11-20T10:19:49.769Z,5.03
2022-11-20T10:25:10.851Z,4.95
2022-11-20T10:30:19.123Z,5.00
2022-11-20T10:35:54.357Z,5.10
2022-11-20T10:41:21.202Z,5.10
2022-11-20T10:46:25.060Z,5.24
2022-11-20T10:51:32.939Z,5.09
2022-11-20T10:56:50.301Z,5.14
2022-11-20T11:01:52.936Z,5.07
2022-11-20T11:07:04.317Z,4.92
2022-11-20T11:12:11.021Z,5.00
2022-11-20T11:17:41.567Z,4.97
2022-11-20T11:22:50.305Z,4.99
2022-11-20T11:27:54.356Z,4.98
2022-11-20T11:33:07.995Z,5.02
2022-11-20T11:38:18.479Z,4.90
2022-11-20T11:43:46.068Z,5.04
2022-11-20T11:49:03.178Z,5.02
2022-11-20T11:54:21.591Z,5.45
2022-11-20T11:59:48.061Z,5.02
2022-11-20T12:04:58.968Z,5.02
2022-11-20T12:10:03.357Z,5.23
2022-11-20T12:15:12.382Z,5.23
2022-11-20T12:20:15.641Z,5.37
2022-11-20T12:25:29.877Z,5.28
2022-11-20T12:30:36.667Z,5.37
2022-11-20T12:35:39.155Z,5.40
2022-11-20T12:40:56.789Z,5.42
2022-11-20T12:46:18.574Z,5.32
2022-11-20T12:51:44.960Z,5.32
2022-11-20T12:57:15.076Z,5.13
2022-11-20T13:02:38.938Z,5.37
2022-11-20T13:07:43.368Z,5.24
2022-11-20T13:12:50.333Z,5.46
2022-11-20T13:17:59.091Z,5.35
2022-11-20T13:23:01.603Z,5.29
2022-11-20T13:28:23.969Z,5.33
2022-11-20T13:33:38.266Z,5.23
2022-11-20T13:38:54.913Z,5.14
2022-11-20T13:44:30.247Z,5.00
2022-11-20T13:49:44.835Z,5.20
2022-11-20T13:55:20.795Z,5.12
2022-11-20T14:00:26.448Z,4.96
2022-11-20T14:05:32.410Z,5.13
2022-11-20T14:10:34.972Z,5.32
2022-11-20T14:15:43.287Z,5.27
2022-11-20T14:20:47.876Z,5.04
2022-11-20T14:25:50.435Z,5.04
2022-11-20T14:30:53.975Z,4.62
2022-11-20T14:35:59.917Z,4.75
2022-11-20T14:41:20.255Z,4.66
2022-11-20T14:46:23.658Z,4.85
2022-11-20T14:51:42.447Z,4.81
2022-11-20T14:57:03.120Z,4.96
2022-11-20T15:02:10.546Z,5.06
2022-11-20T15:07:13.099Z,5.14
2022-11-20T15:12:19.473Z,4.71
2022-11-20T15:17:21.948Z,5.00
2022-11-20T15:22:24.435Z,5.17
2022-11-20T15:27:26.928Z,5.07
2022-11-20T15:32:29.414Z,5.13
2022-11-20T15:37:54.763Z,5.39
2022-11-20T15:43:13.064Z,5.27
2022-11-20T15:48:20.761Z,5.29
2022-11-20T15:53:23.265Z,5.44
2022-11-20T15:58:25.809Z,5.50
2022-11-20T16:03:28.723Z,5.24
2022-11-20T16:08:31.195Z,5.53
2022-11-20T16:13:52.323Z,5.50
2022-11-20T16:18:54.806Z,5.39
2022-11-20T16:24:05.819Z,5.53
2022-11-20T16:29:08.783Z,5.68
2022-11-20T16:34:23.575Z,5.49
2022-11-20T16:39:26.618Z,5.59
2022-11-20T16:44:29.318Z,5.56
2022-11-20T16:49:33.524Z,5.65
2022-11-20T16:54:35.984Z,5.84
2022-11-20T16:59:38.550Z,5.88
2022-11-20T17:04:41.882Z,5.84
2022-11-20T17:09:44.456Z,5.73
2022-11-20T17:14:47.006Z,5.75
2022-11-20T17:19:52.521Z,5.84
2022-11-20T17:24:54.927Z,5.75
2022-11-20T17:29:59.502Z,5.79
2022-11-20T17:35:02.088Z,5.77
2022-11-20T17:40:06.245Z,5.76
2022-11-20T17:45:08.886Z,5.87
2022-11-20T17:50:11.422Z,5.93
2022-11-20T17:55:13.997Z,5.93
2022-11-20T18:00:17.988Z,5.85
2022-11-20T18:05:20.786Z,6.00
2022-11-20T18:10:23.345Z,5.91
2022-11-20T18:15:26.344Z,5.85
2022-11-20T18:20:32.029Z,5.92
2022-11-20T18:25:36.627Z,5.92
2022-11-20T18:30:39.108Z,5.73
2022-11-20T18:35:43.320Z,5.68
2022-11-20T18:40:45.835Z,5.70
2022-11-20T18:45:48.334Z,5.63
2022-11-20T18:50:50.827Z,5.66
2022-11-20T18:55:53.347Z,5.73
2022-11-20T19:00:55.892Z,5.82
2022-11-20T19:05:58.439Z,5.92
2022-11-20T19:11:08.840Z,5.83
2022-11-20T19:16:17.068Z,5.59
2022-11-20T19:21:22.607Z,5.71
2022-11-20T19:26:26.044Z,5.80
2022-11-20T19:31:29.279Z,5.83
2022-11-20T19:36:34.756Z,5.83
2022-11-20T19:41:39.159Z,5.73
2022-11-20T19:46:42.808Z,5.66
2022-11-20T19:51:48.273Z,5.63
2022-11-20T19:56:50.983Z,5.73
2022-11-20T20:01:53.524Z,5.62
2022-11-20T20:06:56.469Z,5.44
2022-11-20T20:11:58.961Z,5.54
2022-11-20T20:17:01.496Z,5.42
2022-11-20T20:22:03.978Z,5.43
2022-11-20T20:27:06.496Z,5.27
2022-11-20T20:32:09.158Z,5.30
2022-11-20T20:37:11.632Z,5.33
2022-11-20T20:42:14.235Z,5.38
2022-11-20T20:47:16.677Z,5.49
2022-11-20T20:52:19.302Z,5.53
2022-11-20T20:57:23.121Z,5.57
2022-11-20T21:02:26.194Z,5.44
2022-11-20T21:07:28.757Z,5.38
2022-11-20T21:12:31.300Z,5.39
2022-11-20T21:17:33.770Z,5.41
2022-11-20T21:22:36.639Z,5.53
2022-11-20T21:27:39.157Z,5.69
2022-11-20T21:32:41.689Z,5.69
2022-11-20T21:37:44.116Z,5.62
2022-11-20T21:42:46.648Z,5.54
2022-11-20T21:47:50.809Z,5.58
2022-11-20T21:52:53.437Z,5.51
2022-11-20T21:57:55.915Z,5.64
2022-11-20T22:02:58.482Z,5.55
2022-11-20T22:08:01.777Z,5.58
2022-11-20T22:13:22.813Z,5.55
2022-11-20T22:18:25.298Z,5.28
2022-11-20T22:23:27.795Z,5.21
2022-11-20T22:28:30.419Z,5.12
2022-11-20T22:33:33.707Z,5.03
2022-11-20T22:38:39.529Z,5.04
2022-11-20T22:43:43.483Z,5.12
2022-11-20T22:48:57.095Z,5.09
2022-11-20T22:54:00.542Z,5.13
2022-11-20T22:59:03.398Z,5.03
2022-11-20T23:04:10.029Z,4.98
2022-11-20T23:09:13.205Z,4.96
2022-11-20T23:14:16.514Z,5.11
2022-11-20T23:19:19.490Z,5.07
2022-11-20T23:24:22.043Z,5.15
2022-11-20T23:29:24.595Z,5.06
2022-11-20T23:34:27.288Z,5.15
2022-11-20T23:39:29.970Z,5.20
2022-11-20T23:44:32.470Z,5.18
2022-11-20T23:49:34.973Z,5.03
2022-11-20T23:54:37.536Z,5.01
2022-11-20T23:59:40.069Z,4.98
